createdAt,value
2022-12-08T00:03:41.763Z,51.80
2022-12-08T00:09:04.413Z,51.80
2022-12-08T00:14:09.800Z,51.90
2022-12-08T00:19:15.487Z,52.00
2022-12-08T00:24:20.562Z,52.40
2022-12-08T00:29:26.046Z,52.60
2022-12-08T00:34:34.475Z,53.00
2022-12-08T00:39:41.723Z,53.10
2022-12-08T00:44:49.449Z,53.20
2022-12-08T00:49:56.871Z,53.50
2022-12-08T00:55:01.197Z,53.50
2022-12-08T01:00:06.949Z,53.60
2022-12-08T01:05:11.108Z,53.80
2022-12-08T01:10:18.310Z,53.50
2022-12-08T01:15:23.466Z,53.60
2022-12-08T01:20:30.589Z,53.50
2022-12-08T01:25:35.621Z,53.60
2022-12-08T01:30:40.509Z,54.00
2022-12-08T01:35:46.219Z,53.90
2022-12-08T01:40:50.384Z,53.80
2022-12-08T01:45:55.959Z,53.90
2022-12-08T01:51:03.462Z,54.10
2022-12-08T01:56:16.196Z,54.00
2022-12-08T02:01:23.892Z,54.60
2022-12-08T02:06:31.426Z,54.10
2022-12-08T02:11:36.436Z,54.30
2022-12-08T02:17:06.912Z,54.50
2022-12-08T02:22:31.734Z,54.50
2022-12-08T02:27:57.659Z,54.60
2022-12-08T02:33:20.812Z,54.60
2022-12-08T02:38:41.132Z,54.70
2022-12-08T02:43:53.345Z,55.50
2022-12-08T02:48:58.227Z,54.20
2022-12-08T02:54:04.429Z,53.50
2022-12-08T02:59:12.420Z,53.10
2022-12-08T03:04:56.604Z,52.90
2022-12-08T03:10:45.009Z,52.80
2022-12-08T03:15:51.463Z,52.50
2022-12-08T03:20:56.432Z,52.30
2022-12-08T03:26:08.781Z,52.20
2022-12-08T03:31:18.799Z,52.10
2022-12-08T03:36:23.786Z,52.00
2022-12-08T03:41:27.709Z,51.80
2022-12-08T03:46:32.151Z,51.80
2022-12-08T03:51:43.789Z,51.80
2022-12-08T03:56:50.653Z,51.70
2022-12-08T04:01:55.432Z,51.70
2022-12-08T04:06:59.332Z,51.60
2022-12-08T04:12:05.309Z,51.90
2022-12-08T04:17:09.993Z,51.50
2022-12-08T04:22:13.681Z,51.50
2022-12-08T04:27:18.432Z,51.50
2022-12-08T04:32:24.509Z,51.50
2022-12-08T04:37:30.283Z,51.50
2022-12-08T04:42:36.667Z,51.70
2022-12-08T04:47:40.500Z,51.20
2022-12-08T04:52:44.220Z,51.20
2022-12-08T04:57:48.154Z,51.40
2022-12-08T05:02:52.186Z,51.60
2022-12-08T05:08:06.038Z,52.00
2022-12-08T05:13:12.022Z,52.00
2022-12-08T05:18:16.869Z,52.30
2022-12-08T05:23:21.041Z,52.50
2022-12-08T05:28:41.254Z,52.50
2022-12-08T05:33:46.567Z,53.00
2022-12-08T05:38:50.602Z,52.90
2022-12-08T05:43:56.782Z,53.00
2022-12-08T05:49:02.001Z,53.00
2022-12-08T05:54:07.220Z,53.20
2022-12-08T05:59:14.415Z,53.70
2022-12-08T06:04:19.361Z,53.40
2022-12-08T06:09:27.194Z,53.50
2022-12-08T06:14:32.135Z,53.50
2022-12-08T06:19:38.925Z,53.60
2022-12-08T06:24:42.855Z,53.60
2022-12-08T06:29:46.686Z,53.70
2022-12-08T06:34:52.051Z,53.70
2022-12-08T06:39:59.769Z,54.60
2022-12-08T06:45:07.627Z,53.70
2022-12-08T06:50:14.233Z,53.90
2022-12-08T06:55:42.506Z,54.00
2022-12-08T07:00:46.549Z,54.10
2022-12-08T07:06:03.501Z,54.10
2022-12-08T07:11:20.973Z,54.70
2022-12-08T07:16:25.703Z,54.50
2022-12-08T07:21:29.740Z,54.00
2022-12-08T07:26:34.697Z,53.90
2022-12-08T07:31:41.938Z,54.20
2022-12-08T07:36:46.856Z,53.80
2022-12-08T07:41:50.943Z,53.50
2022-12-08T07:46:57.520Z,53.30
2022-12-08T07:52:34.820Z,53.10
2022-12-08T07:57:43.313Z,52.70
2022-12-08T08:02:48.205Z,52.70
2022-12-08T08:07:57.265Z,52.60
2022-12-08T08:13:03.234Z,52.40
2022-12-08T08:18:07.949Z,53.00
2022-12-08T08:23:15.750Z,52.40
2022-12-08T08:28:22.862Z,52.30
2022-12-08T08:33:30.360Z,52.10
2022-12-08T08:38:34.130Z,52.00
2022-12-08T08:43:38.776Z,52.00
2022-12-08T08:48:43.337Z,51.90
2022-12-08T08:53:46.966Z,51.80
2022-12-08T08:58:53.488Z,52.00
2022-12-08T09:03:58.326Z,51.80
2022-12-08T09:09:02.396Z,51.80
2022-12-08T09:14:06.459Z,51.70
2022-12-08T09:19:10.846Z,51.70
2022-12-08T09:24:18.546Z,51.60
2022-12-08T09:29:22.292Z,51.20
2022-12-08T09:34:26.115Z,51.10
2022-12-08T09:39:29.944Z,51.10
2022-12-08T09:44:52.003Z,51.10
2022-12-08T09:50:19.276Z,51.30
2022-12-08T09:55:34.231Z,51.50
2022-12-08T10:00:38.268Z,51.50
2022-12-08T10:05:49.454Z,52.30
2022-12-08T10:11:10.255Z,51.90
2022-12-08T10:16:33.303Z,52.30
2022-12-08T10:21:37.453Z,52.60
2022-12-08T10:26:41.817Z,52.80
2022-12-08T10:31:46.023Z,52.60
2022-12-08T10:36:53.638Z,52.70
2022-12-08T10:42:22.380Z,53.00
2022-12-08T10:47:28.835Z,53.20
2022-12-08T10:52:32.578Z,53.40
2022-12-08T10:57:39.371Z,53.00
2022-12-08T11:02:55.653Z,52.80
2022-12-08T11:08:00.418Z,52.90
2022-12-08T11:13:14.701Z,53.00
2022-12-08T11:18:23.440Z,53.30
2022-12-08T11:23:30.033Z,53.50
2022-12-08T12:01:25.115Z,53.90
2022-12-08T12:06:54.672Z,54.50
2022-12-08T12:12:13.387Z,54.10
2022-12-08T12:17:41.160Z,54.10
2022-12-08T12:22:50.009Z,54.30
2022-12-08T12:27:59.503Z,54.30
2022-12-08T12:33:09.114Z,54.50
2022-12-08T12:38:44.093Z,54.50
2022-12-08T12:44:08.469Z,55.00
2022-12-08T12:49:40.488Z,54.50
2022-12-08T12:55:05.127Z,54.30
2022-12-08T13:00:25.125Z,54.20
2022-12-08T13:05:47.473Z,54.00
2022-12-08T13:11:00.617Z,54.10
2022-12-08T13:16:15.437Z,54.10
2022-12-08T13:21:32.097Z,54.40
2022-12-08T13:26:45.155Z,54.40
2022-12-08T13:31:51.255Z,54.50
2022-12-08T13:37:00.592Z,54.60
2022-12-08T13:42:27.752Z,54.60
2022-12-08T13:47:41.506Z,54.80
2022-12-08T13:58:32.442Z,54.80
2022-12-08T14:04:31.145Z,54.80
2022-12-08T14:09:23.881Z,54.70
2022-12-08T14:15:03.377Z,53.80
2022-12-08T14:20:23.608Z,53.40
2022-12-08T14:25:29.120Z,53.00
2022-12-08T14:30:33.883Z,52.90
2022-12-08T14:35:39.249Z,53.00
2022-12-08T14:40:48.493Z,54.10
2022-12-08T14:46:00.359Z,57.10
2022-12-08T14:51:35.360Z,54.70
2022-12-08T14:56:53.708Z,54.40
2022-12-08T15:02:24.732Z,54.40
2022-12-08T15:07:34.648Z,55.30
2022-12-08T15:12:38.522Z,56.50
2022-12-08T15:17:53.364Z,55.00
2022-12-08T15:23:00.620Z,54.50
2022-12-08T15:28:04.768Z,55.00
2022-12-08T15:33:12.018Z,54.70
2022-12-08T15:38:36.752Z,55.60
2022-12-08T15:43:41.706Z,54.00
2022-12-08T15:48:45.739Z,54.00
2022-12-08T15:53:54.173Z,53.70
2022-12-08T15:58:58.466Z,53.80
2022-12-08T16:09:38.657Z,55.40
2022-12-08T16:20:15.170Z,54.40
2022-12-08T16:25:23.193Z,54.50
2022-12-08T16:30:46.518Z,54.50
2022-12-08T16:36:19.099Z,55.30
2022-12-08T16:41:47.229Z,54.20
2022-12-08T16:46:56.021Z,54.00
2022-12-08T16:52:07.168Z,53.80
2022-12-08T16:57:14.626Z,53.60
2022-12-08T17:02:19.069Z,53.80
2022-12-08T17:07:22.896Z,54.20
2022-12-08T17:12:26.418Z,53.60
2022-12-08T17:17:30.142Z,53.30
2022-12-08T17:22:36.936Z,53.00
2022-12-08T17:27:41.492Z,54.60
2022-12-08T17:32:45.104Z,53.40
2022-12-08T17:37:49.036Z,53.30
2022-12-08T17:43:06.774Z,53.40
2022-12-08T17:48:12.679Z,53.20
2022-12-08T17:53:16.705Z,53.60
2022-12-08T17:58:25.531Z,53.00
2022-12-08T18:03:29.257Z,53.00
2022-12-08T18:08:32.981Z,52.50
2022-12-08T18:13:36.707Z,52.10
2022-12-08T18:18:40.851Z,51.10
2022-12-08T18:23:46.066Z,50.20
2022-12-08T18:28:51.055Z,49.60
2022-12-08T18:34:06.346Z,49.20
2022-12-08T18:39:49.625Z,48.80
2022-12-08T18:45:52.731Z,48.50
2022-12-08T18:51:39.565Z,48.10
2022-12-08T19:02:33.558Z,47.70
2022-12-08T19:07:40.593Z,48.60
2022-12-08T19:12:44.400Z,48.40
2022-12-08T19:17:57.933Z,48.80
2022-12-08T19:23:02.191Z,48.50
2022-12-08T19:28:06.222Z,48.50
2022-12-08T19:33:11.389Z,48.60
2022-12-08T19:38:26.271Z,48.70
2022-12-08T19:44:01.509Z,48.70
2022-12-08T19:49:05.549Z,48.60
2022-12-08T19:54:12.253Z,49.30
2022-12-08T19:59:16.468Z,48.80
2022-12-08T20:04:23.917Z,49.70
2022-12-08T20:09:30.672Z,49.10
2022-12-08T20:14:34.306Z,49.40
2022-12-08T20:19:38.053Z,49.30
2022-12-08T20:24:46.107Z,49.60
2022-12-08T20:36:08.830Z,49.50
2022-12-08T20:41:33.675Z,49.80
2022-12-08T20:46:53.926Z,49.80
2022-12-08T20:52:05.598Z,49.60
2022-12-08T20:57:26.530Z,50.30
2022-12-08T21:02:33.742Z,50.40
2022-12-08T21:07:38.623Z,50.20
2022-12-08T21:12:42.757Z,50.30
2022-12-08T21:17:47.113Z,50.80
2022-12-08T21:22:51.506Z,50.90
2022-12-08T21:28:09.292Z,51.40
2022-12-08T21:33:32.734Z,51.10
2022-12-08T21:38:44.603Z,51.70
2022-12-08T21:43:54.848Z,52.00
2022-12-08T21:48:59.379Z,55.80
2022-12-08T21:54:05.103Z,56.00
2022-12-08T21:59:10.734Z,55.70
2022-12-08T22:04:18.944Z,55.20
2022-12-08T22:09:22.912Z,55.10
2022-12-08T22:14:27.430Z,55.50
2022-12-08T22:19:31.671Z,54.80
2022-12-08T22:24:35.543Z,54.70
2022-12-08T22:29:39.467Z,54.60
2022-12-08T22:34:44.453Z,54.50
2022-12-08T22:39:51.476Z,54.40
2022-12-08T22:45:08.757Z,54.50
2022-12-08T22:50:19.690Z,54.40
2022-12-08T22:56:05.900Z,54.40
2022-12-08T23:01:49.416Z,54.70
2022-12-08T23:06:53.586Z,54.30
2022-12-08T23:12:02.806Z,54.30
2022-12-08T23:17:06.860Z,54.30
2022-12-08T23:22:11.087Z,54.40
2022-12-08T23:27:14.800Z,54.40
2022-12-08T23:32:18.690Z,54.30
2022-12-08T23:37:22.807Z,54.10
2022-12-08T23:42:26.979Z,53.90
2022-12-08T23:47:30.874Z,54.20
2022-12-08T23:52:34.649Z,53.70
2022-12-08T23:57:39.151Z,53.20
